Time;durP1;ratioP1;P1;durP2;ratioP2;P2;SDS_P1;SDS_P2;PMS_P1;PMS_P2;Temp;Humidity;BMP_temperature;BMP_pressure;BME280_temperature;BME280_humidity;BME280_pressure;Samples;Min_cycle;Max_cycle;Signal;HPM_P1;HPM_P2
2021/04/21 00:01:31;;;;;;;8.15;4.65;;;;;;;7.47;68.79;100599.38;3572882;40;20075;-46
2021/04/21 00:03:59;;;;;;;6.80;4.30;;;;;;;7.42;70.15;100594.94;3572472;40;20064;-44
2021/04/21 00:06:27;;;;;;;10.73;4.57;;;;;;;7.13;70.37;100589.63;3572925;40;20056;-45
2021/04/21 00:08:55;;;;;;;8.70;4.35;;;;;;;7.30;69.51;100578.41;3572517;40;20060;-45
2021/04/21 00:11:23;;;;;;;6.93;4.40;;;;;;;7.56;68.37;100586.13;3572379;40;20053;-48
2021/04/21 00:13:50;;;;;;;5.72;3.80;;;;;;;7.41;68.75;100573.69;3572525;40;20332;-44
2021/04/21 00:16:17;;;;;;;6.65;4.53;;;;;;;7.40;68.54;100577.06;3572497;40;20439;-45
2021/04/21 00:18:45;;;;;;;10.90;4.93;;;;;;;7.12;70.35;100567.53;3573066;40;20138;-46
2021/04/21 00:21:13;;;;;;;9.52;4.22;;;;;;;6.91;71.39;100574.34;3574224;40;20068;-45
2021/04/21 00:23:41;;;;;;;8.70;4.63;;;;;;;6.76;73.16;100578.03;3573998;40;20037;-44
2021/04/21 00:26:15;;;;;;;7.35;4.07;;;;;;;7.13;71.42;100569.25;3573595;40;20052;-48
2021/04/21 00:28:51;;;;;;;7.03;3.72;;;;;;;6.96;72.13;100575.38;3572266;40;20116;-46
2021/04/21 00:31:27;;;;;;;6.57;4.97;;;;;;;6.61;74.56;100578.31;3573873;40;20149;-47
2021/04/21 00:33:57;;;;;;;12.55;6.15;;;;;;;6.32;75.86;100572.03;3574062;40;20101;-45
2021/04/21 00:36:26;;;;;;;8.43;5.07;;;;;;;6.29;76.13;100574.47;3574185;40;20080;-45
2021/04/21 00:38:55;;;;;;;8.82;5.20;;;;;;;6.23;76.68;100569.09;3574156;40;20064;-46
2021/04/21 00:41:27;;;;;;;9.93;4.65;;;;;;;6.33;75.45;100576.34;3574040;40;20081;-43
2021/04/21 00:44:21;;;;;;;8.45;5.05;;;;;;;6.14;77.28;100578.91;3573868;40;20799;-45
2021/04/21 00:46:51;;;;;;;11.93;5.28;;;;;;;6.07;77.81;100575.25;3572656;40;20052;-45
2021/04/21 00:49:26;;;;;;;9.90;5.47;;;;;;;6.35;76.35;100574.72;3573025;40;20033;-47
2021/04/21 00:51:57;;;;;;;9.00;5.28;;;;;;;6.01;78.99;100571.56;3573933;40;20071;-45
2021/04/21 00:55:03;;;;;;;9.38;5.15;;;;;;;5.93;79.17;100573.81;3574096;40;20103;-47
2021/04/21 00:57:54;;;;;;;9.38;5.32;;;;;;;6.10;77.93;100569.41;3572479;40;20071;-44
2021/04/21 01:00:26;;;;;;;10.75;5.65;;;;;;;5.96;77.81;100573.03;3572946;40;20064;-42
2021/04/21 01:02:58;;;;;;;9.85;5.40;;;;;;;6.07;78.10;100575.25;3573794;40;20057;-43
2021/04/21 01:05:29;;;;;;;10.38;5.13;;;;;;;6.33;78.47;100576.34;3573801;40;20060;-43
2021/04/21 01:08:00;;;;;;;10.55;5.10;;;;;;;6.10;78.77;100571.94;3574090;40;20523;-47
2021/04/21 01:10:32;;;;;;;10.80;5.63;;;;;;;5.97;79.58;100569.72;3574150;40;20778;-44
2021/04/21 01:13:00;;;;;;;10.80;6.50;;;;;;;5.73;81.82;100562.75;3573669;40;20093;-43
2021/04/21 01:15:30;;;;;;;11.00;5.43;;;;;;;5.60;83.19;100566.44;3573977;40;20053;-51
2021/04/21 01:17:58;;;;;;;9.00;6.35;;;;;;;5.53;83.17;100564.41;3573897;40;20060;-49
2021/04/21 01:21:04;;;;;;;10.80;5.53;;;;;;;5.51;84.03;100562.63;3573925;40;20061;-46
2021/04/21 01:23:54;;;;;;;9.45;5.55;;;;;;;5.68;82.36;100558.25;3573329;40;20044;-44
2021/04/21 01:26:39;;;;;;;11.10;5.70;;;;;;;5.66;83.03;100568.38;3573947;40;20084;-47
2021/04/21 01:29:07;;;;;;;13.23;5.50;;;;;;;5.55;83.31;100565.38;3573531;40;20059;-46
2021/04/21 01:31:35;;;;;;;12.15;6.10;;;;;;;5.50;84.83;100564.31;3573684;40;20057;-45
2021/04/21 01:34:04;;;;;;;8.52;5.85;;;;;;;5.48;84.36;100560.81;3573409;40;20053;-48
2021/04/21 01:36:33;;;;;;;11.48;5.68;;;;;;;5.35;86.43;100556.84;3573793;40;20069;-44
2021/04/21 01:39:02;;;;;;;9.70;6.00;;;;;;;5.29;87.04;100553.19;3574005;40;20131;-44
2021/04/21 01:41:36;;;;;;;11.65;6.15;;;;;;;5.25;87.46;100558.94;3573956;40;20403;-50
2021/04/21 01:44:08;;;;;;;11.13;6.53;;;;;;;5.19;88.64;100558.66;3573384;40;20128;-47
2021/04/21 01:46:39;;;;;;;10.23;6.55;;;;;;;5.13;88.25;100559.25;3571601;40;20156;-47
2021/04/21 01:49:37;;;;;;;10.32;6.60;;;;;;;5.02;89.42;100556.22;3573507;40;20073;-43
2021/04/21 01:52:42;;;;;;;12.98;6.45;;;;;;;4.98;89.15;100559.41;3573316;40;20069;-45
2021/04/21 01:55:21;;;;;;;10.75;6.00;;;;;;;5.28;89.13;100567.56;3571569;40;20117;-45
2021/04/21 01:58:10;;;;;;;12.20;6.90;;;;;;;5.84;85.10;100568.28;3573709;40;20048;-44
2021/04/21 02:00:52;;;;;;;10.18;6.40;;;;;;;5.52;86.32;100567.78;3571594;40;20085;-45
2021/04/21 02:03:33;;;;;;;11.80;6.10;;;;;;;5.42;86.74;100569.84;3572616;40;20077;-43
2021/04/21 02:06:19;;;;;;;8.82;6.32;;;;;;;5.01;90.44;100567.16;3573925;40;20037;-46
2021/04/21 02:09:00;;;;;;;10.73;6.95;;;;;;;5.00;90.28;100565.44;3572310;40;20044;-44
2021/04/21 02:11:34;;;;;;;11.45;6.40;;;;;;;4.92;90.42;100556.59;3573481;40;20045;-47
2021/04/21 02:14:12;;;;;;;11.85;6.53;;;;;;;4.89;91.12;100561.53;3573382;40;20081;-45
2021/04/21 02:17:04;;;;;;;15.75;7.70;;;;;;;4.90;91.40;100560.75;3571662;40;20056;-46
2021/04/21 02:19:38;;;;;;;10.45;6.78;;;;;;;4.94;91.76;100556.66;3573347;40;20048;-46
2021/04/21 02:22:42;;;;;;;15.30;7.18;;;;;;;4.87;92.53;100552.13;3573464;40;20084;-46
2021/04/21 02:25:33;;;;;;;15.05;6.97;;;;;;;4.73;92.52;100554.88;3564932;40;20081;-43
2021/04/21 02:28:24;;;;;;;12.18;6.35;;;;;;;4.69;93.08;100552.13;3573212;40;20081;-44
2021/04/21 02:31:24;;;;;;;10.68;6.70;;;;;;;4.66;93.26;100557.03;3572253;40;20081;-45
2021/04/21 02:34:29;;;;;;;14.27;6.80;;;;;;;4.63;93.63;100554.38;3572074;40;20077;-45
2021/04/21 02:37:10;;;;;;;10.57;6.15;;;;;;;4.76;93.19;100547.44;3566427;40;20121;-46
2021/04/21 02:40:14;;;;;;;11.95;6.95;;;;;;;5.09;92.03;100550.63;3571465;40;20074;-46
2021/04/21 02:42:55;;;;;;;12.70;7.90;;;;;;;5.00;92.84;100552.75;3509578;40;20066;-48
2021/04/21 02:45:37;;;;;;;14.48;8.23;;;;;;;5.32;89.27;100549.13;3567676;40;20433;-44
2021/04/21 02:48:19;;;;;;;13.68;8.50;;;;;;;4.92;91.34;100558.28;3573297;40;20320;-44
2021/04/21 02:51:18;;;;;;;12.43;7.75;;;;;;;5.00;91.65;100551.88;3572037;40;20065;-46
2021/04/21 02:53:54;;;;;;;11.85;6.80;;;;;;;4.96;91.84;100550.88;3550933;40;20057;-44
2021/04/21 02:56:39;;;;;;;12.95;6.45;;;;;;;4.98;92.23;100556.00;3572378;40;20049;-42
2021/04/21 02:59:13;;;;;;;11.63;6.72;;;;;;;5.26;89.76;100551.38;3573295;40;20076;-44
2021/04/21 03:02:05;;;;;;;12.57;6.57;;;;;;;4.78;91.93;100560.16;3571390;40;20053;-43
2021/04/21 03:04:42;;;;;;;12.02;6.72;;;;;;;4.88;92.50;100551.31;3573005;40;20088;-45
2021/04/21 03:07:34;;;;;;;14.50;7.30;;;;;;;4.81;92.46;100548.50;3572740;40;20096;-44
2021/04/21 03:10:07;;;;;;;11.30;6.38;;;;;;;4.85;93.30;100550.38;3562970;40;20059;-48
2021/04/21 03:12:37;;;;;;;11.38;6.78;;;;;;;5.42;89.58;100554.59;3573189;40;20444;-44
2021/04/21 03:15:08;;;;;;;13.18;6.85;;;;;;;4.92;92.07;100550.66;3573263;40;20057;-46
2021/04/21 03:17:35;;;;;;;15.45;7.20;;;;;;;4.81;92.37;100545.97;3574108;40;20093;-43
2021/04/21 03:20:12;;;;;;;10.73;6.57;;;;;;;4.88;92.59;100541.16;3579590;40;20423;-46
2021/04/21 03:22:43;;;;;;;12.43;6.72;;;;;;;5.32;89.91;100544.06;3577105;40;20048;-49
2021/04/21 03:25:17;;;;;;;11.70;6.78;;;;;;;5.56;86.77;100546.78;3574935;40;20721;-44
2021/04/21 03:27:49;;;;;;;10.38;6.72;;;;;;;5.08;89.14;100556.53;3574043;40;20455;-46
2021/04/21 03:30:18;;;;;;;12.48;6.97;;;;;;;5.16;89.85;100549.22;3571978;40;20045;-47
2021/04/21 03:32:51;;;;;;;11.75;6.93;;;;;;;5.47;87.90;100550.59;3572902;40;20080;-45
2021/04/21 03:35:22;;;;;;;13.38;7.13;;;;;;;5.71;86.23;100550.78;3571882;40;20065;-44
2021/04/21 03:38:04;;;;;;;12.57;6.57;;;;;;;5.60;86.09;100546.13;3572950;40;20163;-46
2021/04/21 03:40:32;;;;;;;11.32;6.47;;;;;;;5.34;87.95;100544.09;3572639;40;20069;-45
2021/04/21 03:42:59;;;;;;;10.32;6.35;;;;;;;5.29;87.57;100548.13;3572870;40;20060;-43
2021/04/21 03:45:27;;;;;;;11.95;6.68;;;;;;;5.20;88.36;100540.97;3573489;40;20846;-45
2021/04/21 03:47:55;;;;;;;11.52;6.00;;;;;;;5.29;87.83;100546.44;3572965;40;20063;-43
2021/04/21 03:50:23;;;;;;;11.30;5.90;;;;;;;5.34;88.01;100544.97;3573071;40;20073;-46
2021/04/21 03:52:55;;;;;;;9.57;5.93;;;;;;;4.87;89.44;100539.44;3573437;40;20326;-44
2021/04/21 03:55:22;;;;;;;12.18;6.50;;;;;;;4.59;91.29;100546.63;3574449;40;20095;-43
2021/04/21 03:57:53;;;;;;;10.95;6.03;;;;;;;4.44;92.71;100538.31;3574248;40;20077;-45
2021/04/21 04:00:21;;;;;;;12.18;6.40;;;;;;;4.39;93.42;100546.47;3573329;40;20077;-43
2021/04/21 04:02:59;;;;;;;12.25;6.88;;;;;;;4.43;93.51;100545.81;3574445;40;20045;-46
2021/04/21 04:05:34;;;;;;;9.73;6.03;;;;;;;4.37;94.11;100541.31;3573920;40;20053;-44
2021/04/21 04:08:08;;;;;;;10.03;6.37;;;;;;;4.45;93.97;100542.56;3572705;40;20584;-47
2021/04/21 04:10:36;;;;;;;15.57;7.55;;;;;;;4.92;90.14;100540.50;3572132;40;20053;-45
2021/04/21 04:13:07;;;;;;;10.55;5.75;;;;;;;4.50;92.22;100546.19;3573742;40;20097;-44
2021/04/21 04:15:35;;;;;;;10.95;6.20;;;;;;;4.90;91.17;100548.06;3574593;40;20069;-45
2021/04/21 04:18:04;;;;;;;11.52;6.20;;;;;;;4.60;92.09;100543.28;3574461;40;20061;-43
2021/04/21 04:20:33;;;;;;;11.40;6.68;;;;;;;4.55;92.80;100542.19;3574528;40;20064;-44
2021/04/21 04:23:07;;;;;;;8.43;5.97;;;;;;;4.96;90.67;100547.47;3574319;40;20056;-43
2021/04/21 04:25:46;;;;;;;10.80;6.10;;;;;;;4.72;91.40;100550.63;3574149;40;20045;-49
2021/04/21 04:28:13;;;;;;;10.77;6.13;;;;;;;4.80;91.32;100553.50;3574377;40;20057;-44
2021/04/21 04:30:41;;;;;;;13.30;7.00;;;;;;;4.68;91.46;100563.94;3574553;40;20060;-43
2021/04/21 04:33:09;;;;;;;10.00;6.25;;;;;;;4.83;91.19;100557.03;3573149;40;20089;-44
2021/04/21 04:35:37;;;;;;;10.73;6.15;;;;;;;4.72;91.36;100558.22;3572307;40;20469;-47
2021/04/21 04:38:04;;;;;;;11.48;6.10;;;;;;;4.63;92.39;100554.38;3574494;40;20420;-43
2021/04/21 04:40:33;;;;;;;9.20;5.82;;;;;;;4.63;92.83;100560.31;3574493;40;20422;-44
2021/04/21 04:43:00;;;;;;;10.45;6.03;;;;;;;4.66;92.52;100564.66;3574272;40;20433;-46
2021/04/21 04:45:29;;;;;;;10.80;6.07;;;;;;;4.58;92.76;100566.84;3574562;40;20056;-47
2021/04/21 04:48:06;;;;;;;12.90;6.10;;;;;;;4.70;92.74;100562.34;3574310;40;20052;-45
2021/04/21 04:50:37;;;;;;;11.05;6.22;;;;;;;5.25;90.40;100564.00;3574395;40;20072;-44
2021/04/21 04:53:04;;;;;;;9.77;5.80;;;;;;;5.35;89.46;100567.00;3574250;40;20097;-44
2021/04/21 04:55:31;;;;;;;12.70;6.35;;;;;;;5.15;89.89;100566.94;3574359;40;20064;-44
2021/04/21 04:57:57;;;;;;;12.48;5.93;;;;;;;5.33;90.29;100566.09;3574628;40;20057;-42
2021/04/21 05:00:27;;;;;;;10.18;6.57;;;;;;;5.77;87.66;100573.91;3574202;40;20049;-43
2021/04/21 05:03:19;;;;;;;9.27;6.40;;;;;;;5.75;87.07;100570.44;3574205;40;20067;-42
2021/04/21 05:05:46;;;;;;;13.02;6.07;;;;;;;5.24;89.70;100578.38;3572557;40;20044;-42
2021/04/21 05:08:16;;;;;;;14.50;5.95;;;;;;;5.44;89.03;100580.94;3574315;40;20085;-42
2021/04/21 05:10:58;;;;;;;13.80;6.65;;;;;;;5.23;90.28;100584.25;3574445;40;20053;-42
2021/04/21 05:13:29;;;;;;;13.88;6.20;;;;;;;5.80;89.00;100580.00;3573333;40;20045;-42
2021/04/21 05:15:56;;;;;;;10.95;5.65;;;;;;;5.93;87.23;100580.56;3574105;40;20411;-42
2021/04/21 05:18:22;;;;;;;15.15;6.68;;;;;;;5.86;87.15;100585.31;3573925;40;20127;-43
2021/04/21 05:21:10;;;;;;;14.40;6.30;;;;;;;6.02;86.38;100586.03;3573882;40;20116;-47
2021/04/21 05:24:27;;;;;;;24.00;12.20;;;;;;;6.25;85.19;100589.53;3572331;40;20138;-44
2021/04/21 05:27:27;;;;;;;15.50;9.60;;;;;;;6.12;85.09;100590.69;3572843;40;20049;-43
2021/04/21 05:30:21;;;;;;;13.98;7.03;;;;;;;6.24;84.35;100593.75;3572914;40;20061;-45
2021/04/21 05:33:16;;;;;;;14.30;7.20;;;;;;;6.43;82.86;100585.19;3572481;40;20435;-43
2021/04/21 05:35:55;;;;;;;9.88;5.97;;;;;;;6.72;80.37;100593.13;3572129;40;20060;-45
2021/04/21 05:39:13;;;;;;;14.57;6.80;;;;;;;6.59;82.25;100585.00;3572816;40;20048;-44
2021/04/21 05:42:10;;;;;;;12.52;7.32;;;;;;;6.54;81.82;100593.25;3572022;40;20089;-44
2021/04/21 05:45:09;;;;;;;;;;;;;;;6.67;80.49;100592.06;3572120;40;20060;-44
2021/04/21 05:48:04;;;;;;;12.93;6.15;;;;;;;7.43;77.76;100592.44;3571782;40;20273;-44
2021/04/21 05:50:52;;;;;;;11.57;6.35;;;;;;;7.53;76.40;100593.63;3574081;40;20064;-44
2021/04/21 05:54:03;;;;;;;14.07;6.53;;;;;;;7.66;75.85;100593.28;3573472;40;20131;-42
2021/04/21 05:56:54;;;;;;;13.93;6.47;;;;;;;7.45;77.23;100595.94;3543714;40;20072;-43
2021/04/21 05:59:58;;;;;;;10.10;5.75;;;;;;;7.76;76.18;100594.47;3572645;40;20048;-42
2021/04/21 06:02:27;;;;;;;15.15;5.90;;;;;;;8.14;74.25;100594.13;3572719;40;20064;-45
2021/04/21 06:05:09;;;;;;;11.27;6.22;;;;;;;8.23;72.92;100587.56;3573546;40;20401;-46
2021/04/21 06:07:35;;;;;;;11.27;6.50;;;;;;;8.31;73.14;100584.47;3571307;40;20529;-43
2021/04/21 06:10:23;;;;;;;15.00;7.15;;;;;;;8.26;73.17;100587.69;3573451;40;20061;-42
2021/04/21 06:13:00;;;;;;;12.82;6.90;;;;;;;8.45;72.37;100592.59;3572207;40;20056;-45
2021/04/21 06:15:38;;;;;;;8.38;5.82;;;;;;;8.68;69.83;100601.00;3573351;40;20061;-43
2021/04/21 06:18:09;;;;;;;9.65;5.75;;;;;;;8.97;70.05;100595.91;3573326;40;20092;-43
2021/04/21 06:20:38;;;;;;;14.50;6.63;;;;;;;9.01;69.50;100598.63;3571477;40;20068;-42
2021/04/21 06:23:15;;;;;;;12.73;6.40;;;;;;;9.36;65.81;100599.69;3573080;40;20516;-42
2021/04/21 06:25:45;;;;;;;12.77;6.00;;;;;;;9.41;67.26;100594.69;3571682;40;20056;-45
2021/04/21 06:28:16;;;;;;;11.90;6.70;;;;;;;9.66;66.78;100583.50;3573376;40;20049;-43
2021/04/21 06:30:49;;;;;;;10.32;6.15;;;;;;;9.68;66.99;100597.16;3573668;40;20052;-43
2021/04/21 06:33:16;;;;;;;11.68;6.00;;;;;;;10.01;63.67;100594.66;3571968;40;20049;-44
2021/04/21 06:35:44;;;;;;;11.02;6.05;;;;;;;10.25;62.74;100596.13;3573344;40;20068;-43
2021/04/21 06:38:12;;;;;;;9.68;6.13;;;;;;;10.38;63.88;100598.19;3573264;40;20046;-46
2021/04/21 06:40:41;;;;;;;7.53;5.28;;;;;;;10.50;63.20;100598.50;3573383;40;20057;-44
2021/04/21 06:43:08;;;;;;;9.32;6.30;;;;;;;10.93;62.37;100596.94;3572833;40;20056;-42
2021/04/21 06:45:36;;;;;;;9.68;5.88;;;;;;;11.28;61.32;100597.72;3571144;40;20059;-43
2021/04/21 06:48:05;;;;;;;11.10;5.80;;;;;;;11.22;61.07;100598.44;3572750;40;20052;-45
2021/04/21 06:50:34;;;;;;;15.25;6.30;;;;;;;11.37;60.80;100594.47;3573046;40;20056;-42
2021/04/21 06:53:04;;;;;;;11.60;6.00;;;;;;;11.79;59.03;100597.03;3572975;40;20135;-44
2021/04/21 06:55:32;;;;;;;12.52;6.43;;;;;;;12.36;58.38;100598.94;3573235;40;20055;-43
2021/04/21 06:58:00;;;;;;;12.27;6.07;;;;;;;13.55;54.21;100604.13;3573370;40;20072;-43
2021/04/21 07:00:28;;;;;;;10.52;5.15;;;;;;;14.17;52.99;100606.50;3573170;40;20089;-42
2021/04/21 07:02:58;;;;;;;8.48;5.95;;;;;;;14.82;49.42;100608.81;3572710;40;20052;-43
2021/04/21 07:05:37;;;;;;;7.50;5.35;;;;;;;14.92;49.45;100610.59;3573269;40;20060;-42
2021/04/21 07:08:09;;;;;;;12.32;6.18;;;;;;;14.24;51.27;100608.31;3572969;40;20048;-42
2021/04/21 07:10:50;;;;;;;9.15;6.38;;;;;;;14.19;52.96;100617.69;3571273;40;20049;-43
2021/04/21 07:13:30;;;;;;;11.63;6.28;;;;;;;13.02;55.91;100611.94;3571855;40;20299;-42
2021/04/21 07:16:02;;;;;;;11.20;6.07;;;;;;;12.71;55.42;100602.09;3572867;40;20442;-45
2021/04/21 07:18:32;;;;;;;9.98;5.53;;;;;;;12.78;57.25;100612.47;3573276;40;20411;-42
2021/04/21 07:21:01;;;;;;;9.70;5.90;;;;;;;12.46;57.71;100605.09;3573120;40;20081;-42
2021/04/21 07:23:29;;;;;;;10.02;6.40;;;;;;;12.48;56.42;100603.44;3572692;40;20085;-44
2021/04/21 07:25:56;;;;;;;11.48;6.00;;;;;;;12.45;56.22;100608.50;3572979;40;20084;-44
2021/04/21 07:28:23;;;;;;;11.43;6.03;;;;;;;12.81;55.31;100613.38;3574099;40;20045;-43
2021/04/21 07:30:52;;;;;;;12.35;6.50;;;;;;;12.92;53.95;100611.81;3573713;40;20467;-45
2021/04/21 07:33:43;;;;;;;9.65;5.95;;;;;;;13.67;53.72;100615.41;3573663;40;20063;-47
2021/04/21 07:36:20;;;;;;;10.90;6.82;;;;;;;13.44;51.89;100611.69;3573911;40;20075;-45
2021/04/21 07:38:53;;;;;;;11.68;6.97;;;;;;;13.81;49.03;100613.00;3579966;40;20085;-43
2021/04/21 07:41:36;;;;;;;10.43;7.20;;;;;;;13.86;49.20;100613.91;3580225;40;20052;-44
2021/04/21 07:44:04;;;;;;;11.10;7.18;;;;;;;14.06;50.00;100615.84;3577012;40;20102;-42
2021/04/21 07:46:31;;;;;;;16.98;7.78;;;;;;;13.95;50.96;100615.72;3575613;40;20084;-44
2021/04/21 07:48:57;;;;;;;12.65;6.97;;;;;;;13.99;50.20;100609.75;3574759;40;20168;-44
2021/04/21 07:51:24;;;;;;;9.60;6.90;;;;;;;13.97;49.72;100608.91;3574587;40;20138;-43
2021/04/21 07:54:05;;;;;;;10.35;6.78;;;;;;;13.69;49.35;100607.72;3574187;40;20060;-44
2021/04/21 07:56:37;;;;;;;11.90;7.50;;;;;;;13.61;51.59;100607.63;3574694;40;20296;-46
2021/04/21 07:59:28;;;;;;;12.93;7.82;;;;;;;13.32;51.47;100609.00;3574147;40;20037;-46
2021/04/21 08:02:01;;;;;;;13.75;8.50;;;;;;;13.49;51.17;100607.47;3573571;40;20064;-44
2021/04/21 08:04:28;;;;;;;14.18;7.90;;;;;;;13.36;50.34;100608.19;3574444;40;20056;-42
2021/04/21 08:06:58;;;;;;;12.70;7.82;;;;;;;13.45;50.72;100605.69;3574444;40;20323;-46
2021/04/21 08:09:31;;;;;;;12.70;7.88;;;;;;;13.52;51.76;100607.53;3574066;40;20068;-44
2021/04/21 08:12:10;;;;;;;10.63;7.63;;;;;;;13.45;50.34;100600.56;3574154;40;20052;-45
2021/04/21 08:14:45;;;;;;;16.33;7.00;;;;;;;13.85;50.51;100608.75;3571932;40;20085;-43
2021/04/21 08:17:14;;;;;;;12.67;7.80;;;;;;;14.13;50.31;100607.34;3574020;40;20426;-42
2021/04/21 08:19:52;;;;;;;15.20;8.00;;;;;;;14.45;49.68;100616.22;3574280;40;20064;-43
2021/04/21 08:22:37;;;;;;;13.63;7.47;;;;;;;14.33;49.78;100608.41;3573055;40;20034;-43
2021/04/21 08:25:04;;;;;;;13.38;7.80;;;;;;;14.45;48.96;100613.63;3574132;40;20059;-43
2021/04/21 08:27:30;;;;;;;11.65;7.65;;;;;;;14.22;48.77;100610.84;3574769;40;20076;-44
2021/04/21 08:29:58;;;;;;;12.57;6.88;;;;;;;14.34;48.38;100615.28;3574159;40;20150;-42
2021/04/21 08:32:25;;;;;;;13.32;8.02;;;;;;;14.34;45.42;100609.25;3574017;40;20072;-45
2021/04/21 08:34:52;;;;;;;12.50;7.35;;;;;;;14.70;45.47;100612.19;3574240;40;20338;-45
2021/04/21 08:37:20;;;;;;;11.32;7.80;;;;;;;15.10;43.75;100611.56;3574327;40;20041;-42
2021/04/21 08:39:46;;;;;;;9.60;6.68;;;;;;;15.48;43.12;100615.22;3573378;40;20041;-45
2021/04/21 08:42:14;;;;;;;15.82;7.68;;;;;;;15.94;41.31;100615.38;3574115;40;20037;-42
2021/04/21 08:44:42;;;;;;;18.77;8.20;;;;;;;17.55;37.06;100615.28;3574142;40;20084;-44
2021/04/21 08:47:16;;;;;;;14.70;7.90;;;;;;;18.67;33.47;100622.38;3573597;40;20056;-42
2021/04/21 08:49:44;;;;;;;12.10;7.43;;;;;;;19.95;33.68;100621.00;3572668;40;20138;-43
2021/04/21 08:52:16;;;;;;;15.25;7.50;;;;;;;19.38;34.88;100618.25;3574025;40;20048;-45
2021/04/21 08:54:46;;;;;;;11.27;7.65;;;;;;;19.19;33.51;100619.34;3574025;40;20056;-44
2021/04/21 08:57:13;;;;;;;14.05;6.80;;;;;;;17.77;34.39;100622.13;3574051;40;20049;-42
2021/04/21 08:59:42;;;;;;;10.73;7.10;;;;;;;17.42;36.06;100614.47;3574299;40;20098;-44
2021/04/21 09:02:11;;;;;;;12.85;7.65;;;;;;;17.38;36.17;100617.06;3573855;40;20068;-42
2021/04/21 09:04:37;;;;;;;11.10;7.32;;;;;;;16.70;38.02;100609.44;3572328;40;20403;-44
2021/04/21 09:07:05;;;;;;;10.75;6.88;;;;;;;17.20;39.63;100616.28;3574312;40;20045;-42
2021/04/21 09:09:34;;;;;;;9.48;5.90;;;;;;;17.02;40.28;100606.84;3574626;40;20061;-43
2021/04/21 09:12:03;;;;;;;11.90;6.75;;;;;;;16.85;38.12;100608.59;3574106;40;20411;-43
2021/04/21 09:14:30;;;;;;;11.20;6.88;;;;;;;16.63;36.54;100604.25;3574159;40;20072;-42
2021/04/21 09:16:57;;;;;;;11.77;7.13;;;;;;;16.84;38.35;100609.47;3573652;40;20092;-43
2021/04/21 09:19:24;;;;;;;10.40;6.57;;;;;;;16.48;36.18;100602.53;3574239;40;20130;-42
2021/04/21 09:22:08;;;;;;;7.28;5.97;;;;;;;17.29;38.80;100603.31;3574239;40;20120;-45
2021/04/21 09:24:37;;;;;;;9.38;6.18;;;;;;;17.60;36.18;100608.38;3573844;40;20060;-42
2021/04/21 09:27:34;;;;;;;11.88;6.07;;;;;;;17.31;33.82;100604.16;3574203;40;20092;-43
2021/04/21 09:30:22;;;;;;;11.95;6.00;;;;;;;17.71;34.34;100603.16;3573712;40;20331;-45
2021/04/21 09:32:52;;;;;;;8.70;5.72;;;;;;;17.87;35.46;100604.81;3573013;40;20087;-45
2021/04/21 09:35:22;;;;;;;6.90;5.85;;;;;;;17.96;34.52;100607.34;3573142;40;20047;-43
2021/04/21 09:37:53;;;;;;;9.45;5.25;;;;;;;18.02;35.77;100601.25;3574041;40;20237;-42
2021/04/21 09:40:52;;;;;;;7.78;5.82;;;;;;;17.94;34.40;100603.06;3573196;40;20053;-43
2021/04/21 09:43:25;;;;;;;9.40;6.07;;;;;;;18.21;34.83;100592.53;3573008;40;20060;-43
2021/04/21 09:45:54;;;;;;;10.10;5.93;;;;;;;18.94;35.37;100590.16;3574509;40;20068;-43
2021/04/21 09:48:28;;;;;;;9.60;5.72;;;;;;;20.08;32.79;100604.34;3574273;40;20064;-44
2021/04/21 09:51:02;;;;;;;12.57;5.30;;;;;;;22.00;28.12;100601.69;3574044;40;20097;-44
2021/04/21 09:53:30;;;;;;;11.00;5.80;;;;;;;22.59;25.75;100602.00;3574133;40;20088;-45
2021/04/21 09:56:03;;;;;;;7.72;5.50;;;;;;;23.48;26.25;100603.97;3573585;40;20061;-44
2021/04/21 09:58:41;;;;;;;13.23;6.35;;;;;;;23.65;24.03;100595.69;3573568;40;20044;-43
2021/04/21 10:01:27;;;;;;;7.15;5.65;;;;;;;28.08;21.26;100609.13;3572867;40;20037;-44
2021/04/21 10:04:14;;;;;;;9.87;5.80;;;;;;;27.35;20.69;100603.72;3572618;40;20457;-46
2021/04/21 10:06:49;;;;;;;7.72;6.55;;;;;;;28.75;18.90;100610.19;3571646;40;20074;-43
2021/04/21 10:09:24;;;;;;;8.13;5.73;;;;;;;28.67;18.32;100613.25;3572146;40;20063;-43
2021/04/21 10:11:51;;;;;;;7.10;6.40;;;;;;;28.00;19.85;100598.09;3573417;40;20395;-43
2021/04/21 10:14:24;;;;;;;9.88;6.80;;;;;;;29.35;19.56;100605.31;3573282;40;20407;-44
2021/04/21 10:16:52;;;;;;;11.63;6.70;;;;;;;30.07;19.66;100610.13;3573386;40;20065;-43
2021/04/21 10:19:20;;;;;;;9.45;6.63;;;;;;;30.63;16.79;100618.38;3573321;40;20430;-47
2021/04/21 10:21:46;;;;;;;9.77;7.07;;;;;;;30.42;18.67;100610.78;3573228;40;20071;-46
2021/04/21 10:24:13;;;;;;;9.52;7.10;;;;;;;30.62;16.34;100606.97;3573300;40;20053;-44
2021/04/21 10:26:41;;;;;;;9.10;7.80;;;;;;;30.82;16.16;100603.13;3573227;40;20063;-45
2021/04/21 10:29:08;;;;;;;7.70;6.90;;;;;;;29.48;18.58;100597.59;3572401;40;20052;-44
2021/04/21 10:31:35;;;;;;;8.55;7.07;;;;;;;29.13;17.60;100608.25;3570781;40;20166;-44
2021/04/21 10:34:06;;;;;;;11.02;7.25;;;;;;;28.29;18.67;100599.34;3572722;40;20423;-44
2021/04/21 10:36:32;;;;;;;11.35;6.88;;;;;;;27.68;19.36;100592.56;3573729;40;20069;-44
2021/04/21 10:38:59;;;;;;;11.38;7.05;;;;;;;29.46;18.56;100591.56;3573558;40;20092;-44
2021/04/21 10:41:35;;;;;;;10.18;7.65;;;;;;;30.27;17.95;100598.44;3572744;40;20081;-44
2021/04/21 10:44:16;;;;;;;9.10;7.30;;;;;;;31.52;16.18;100607.72;3572980;40;20060;-43
2021/04/21 10:47:05;;;;;;;10.57;7.00;;;;;;;32.27;17.14;100603.75;3571478;40;20056;-43
2021/04/21 10:50:04;;;;;;;9.25;6.82;;;;;;;29.64;17.80;100593.22;3573091;40;20051;-42
2021/04/21 10:52:30;;;;;;;15.18;8.27;;;;;;;32.98;15.29;100597.19;3572866;40;20071;-42
2021/04/21 10:55:10;;;;;;;9.70;7.65;;;;;;;32.82;14.65;100602.69;3572866;40;20064;-43
2021/04/21 10:57:40;;;;;;;10.25;7.50;;;;;;;33.39;15.63;100598.72;3571102;40;20104;-43
2021/04/21 11:00:09;;;;;;;10.73;6.75;;;;;;;31.59;15.98;100595.78;3572756;40;20340;-45
2021/04/21 11:05:09;;;;;;;7.05;6.13;;;;;;;31.11;17.17;100592.59;3572833;40;20059;-44
2021/04/21 11:07:37;;;;;;;9.57;5.90;;;;;;;31.75;16.45;100590.34;3572669;40;20069;-41
2021/04/21 11:10:05;;;;;;;8.10;6.07;;;;;;;32.07;15.25;100591.78;3573026;40;20415;-42
2021/04/21 11:12:52;;;;;;;6.57;5.45;;;;;;;34.23;13.74;100605.91;3573048;40;20049;-46
2021/04/21 11:15:43;;;;;;;6.20;5.57;;;;;;;29.88;18.08;100597.13;3572660;40;20047;-43
2021/04/21 11:18:10;;;;;;;9.63;6.70;;;;;;;32.91;13.86;100596.78;3572765;40;20134;-42
2021/04/21 11:20:46;;;;;;;8.00;6.63;;;;;;;30.87;15.44;100590.50;3570825;40;20089;-47
2021/04/21 11:23:58;;;;;;;9.35;5.78;;;;;;;28.38;18.49;100577.81;3572637;40;20045;-42
2021/04/21 11:26:30;;;;;;;7.60;6.30;;;;;;;29.05;18.23;100577.00;3572730;40;20065;-45
2021/04/21 11:29:16;;;;;;;6.50;5.55;;;;;;;28.78;18.81;100579.28;3572437;40;20065;-43
2021/04/21 11:31:48;;;;;;;7.50;6.23;;;;;;;29.70;16.60;100576.19;3571727;40;20072;-45
2021/04/21 11:34:27;;;;;;;10.52;5.80;;;;;;;28.28;18.77;100574.75;3571515;40;20299;-45
2021/04/21 11:37:11;;;;;;;11.57;6.03;;;;;;;29.39;17.13;100569.91;3572685;40;20060;-46
2021/04/21 11:39:41;;;;;;;6.32;5.65;;;;;;;27.65;18.86;100566.41;3570820;40;20053;-46
2021/04/21 11:42:41;;;;;;;6.53;5.78;;;;;;;25.01;21.54;100565.06;3572068;40;20041;-44
2021/04/21 11:45:14;;;;;;;9.43;5.18;;;;;;;26.68;20.28;100564.63;3564358;40;20073;-44
2021/04/21 11:48:01;;;;;;;7.25;5.40;;;;;;;30.34;17.69;100576.03;3571303;40;20124;-46
2021/04/21 11:50:33;;;;;;;7.10;5.43;;;;;;;27.81;18.33;100556.03;3574361;40;20097;-46
2021/04/21 11:53:06;;;;;;;9.10;4.75;;;;;;;30.01;16.19;100568.22;3577771;40;20107;-46
2021/04/21 11:55:51;;;;;;;6.97;4.53;;;;;;;27.32;19.28;100563.59;3577256;40;20051;-44
2021/04/21 11:58:32;;;;;;;7.97;3.83;;;;;;;29.64;16.14;100569.47;3570829;40;20391;-44
2021/04/21 12:01:11;;;;;;;5.57;3.92;;;;;;;29.91;14.97;100564.41;3571710;40;20084;-46
2021/04/21 12:03:48;;;;;;;8.75;4.55;;;;;;;29.89;17.20;100561.00;3569466;40;20080;-44
2021/04/21 12:06:17;;;;;;;8.50;4.75;;;;;;;31.17;15.49;100565.75;3572726;40;20240;-44